createdAt,value
2019-05-22T00:00:41.286Z,94.5496
2019-05-22T00:01:44.290Z,94.4458
2019-05-22T00:02:47.317Z,94.5496
2019-05-22T00:03:50.307Z,94.6472
2019-05-22T00:04:53.297Z,94.7510
2019-05-22T00:05:56.319Z,94.6472
2019-05-22T00:06:59.296Z,94.6472
2019-05-22T00:08:02.291Z,94.7510
2019-05-22T00:09:05.304Z,94.7510
2019-05-22T00:10:08.321Z,94.7510
2019-05-22T00:11:11.294Z,94.7510
2019-05-22T00:12:14.267Z,94.7510
2019-05-22T00:13:17.301Z,94.7510
2019-05-22T00:14:20.329Z,94.7510
2019-05-22T00:15:23.321Z,94.6472
2019-05-22T00:16:26.313Z,94.4458
2019-05-22T00:17:29.296Z,94.3420
2019-05-22T00:18:32.328Z,94.4458
2019-05-22T00:19:35.304Z,94.6472
2019-05-22T00:20:38.445Z,94.5496
2019-05-22T00:21:41.280Z,94.3420
2019-05-22T00:22:44.316Z,94.5496
2019-05-22T00:23:47.291Z,94.5496
2019-05-22T00:24:50.321Z,94.5496
2019-05-22T00:25:53.323Z,94.6472
2019-05-22T00:26:56.311Z,94.7510
2019-05-22T00:27:59.279Z,94.5496
2019-05-22T00:29:02.349Z,94.5496
2019-05-22T00:30:05.332Z,94.5496
2019-05-22T00:31:08.360Z,94.6472
2019-05-22T00:32:11.298Z,94.5496
2019-05-22T00:33:14.287Z,94.5496
2019-05-22T00:34:17.278Z,94.6472
2019-05-22T00:35:20.305Z,94.5496
2019-05-22T00:36:23.362Z,94.5496
2019-05-22T00:37:26.286Z,94.6472
2019-05-22T00:38:28.324Z,94.6472
2019-05-22T00:39:31.296Z,94.5496
2019-05-22T00:40:34.302Z,94.6472
2019-05-22T00:41:37.295Z,94.6472
2019-05-22T00:42:40.314Z,94.4458
2019-05-22T00:43:43.338Z,94.4458
2019-05-22T00:44:46.300Z,94.3420
2019-05-22T00:45:49.327Z,94.4458
2019-05-22T00:46:52.323Z,94.6472
2019-05-22T00:47:55.283Z,94.7510
2019-05-22T00:48:58.283Z,94.8547
2019-05-22T00:50:00.281Z,94.7510
2019-05-22T00:51:03.301Z,94.6472
2019-05-22T00:52:06.330Z,94.8547
2019-05-22T00:53:09.310Z,94.8547
2019-05-22T00:54:12.288Z,94.8547
2019-05-22T00:55:15.333Z,94.8547
2019-05-22T00:56:18.297Z,94.7510
2019-05-22T00:57:21.331Z,94.7510
2019-05-22T00:58:24.311Z,94.8547
2019-05-22T00:59:26.283Z,94.8547
2019-05-22T01:00:29.307Z,94.8547
2019-05-22T01:01:32.305Z,94.8547
2019-05-22T01:02:35.350Z,94.6472
2019-05-22T01:03:38.305Z,94.5496
2019-05-22T01:04:41.302Z,94.6472
2019-05-22T01:05:44.286Z,94.7510
2019-05-22T01:06:47.272Z,94.8547
2019-05-22T01:07:50.336Z,94.9524
2019-05-22T01:08:53.249Z,94.9524
2019-05-22T01:09:56.347Z,94.8547
2019-05-22T01:10:59.290Z,94.8547
2019-05-22T01:12:02.538Z,94.7510
2019-05-22T01:13:06.302Z,94.6472
2019-05-22T01:14:09.304Z,94.6472
2019-05-22T01:15:12.290Z,94.7510
2019-05-22T01:16:15.292Z,94.7510
2019-05-22T01:17:18.322Z,94.8547
2019-05-22T01:18:20.321Z,94.8547
2019-05-22T01:19:22.474Z,94.9524
2019-05-22T01:20:25.302Z,94.8547
2019-05-22T01:21:28.321Z,94.7510
2019-05-22T01:22:31.292Z,94.6472
2019-05-22T01:23:34.353Z,94.7510
2019-05-22T01:24:37.297Z,94.8547
2019-05-22T01:25:40.288Z,94.8547
2019-05-22T01:26:43.304Z,94.8547
2019-05-22T01:27:46.282Z,94.9524
2019-05-22T01:28:49.369Z,94.9524
2019-05-22T01:29:54.275Z,94.7510
2019-05-22T01:30:57.279Z,94.7510
2019-05-22T01:32:00.293Z,94.6472
2019-05-22T01:33:03.364Z,94.6472
2019-05-22T01:34:06.296Z,94.7510
2019-05-22T01:35:09.300Z,94.8547
2019-05-22T01:36:12.293Z,94.7510
2019-05-22T01:37:15.289Z,94.6472
2019-05-22T01:38:18.291Z,94.6472
2019-05-22T01:39:21.304Z,94.7510
2019-05-22T01:40:24.336Z,94.7510
2019-05-22T01:41:27.307Z,94.6472
2019-05-22T01:42:30.327Z,94.6472
2019-05-22T01:43:32.273Z,94.7510
2019-05-22T01:44:35.308Z,94.7510
2019-05-22T01:45:38.329Z,94.6472
2019-05-22T01:46:41.275Z,94.7510
2019-05-22T01:47:44.322Z,94.7510
2019-05-22T01:48:46.306Z,94.7510
2019-05-22T01:49:49.360Z,94.6472
2019-05-22T01:50:52.287Z,94.6472
2019-05-22T01:51:55.306Z,94.7510
2019-05-22T01:52:58.289Z,94.8547
2019-05-22T01:54:01.292Z,94.8547
2019-05-22T01:55:04.384Z,94.8547
2019-05-22T01:56:07.318Z,94.7510
2019-05-22T01:57:10.310Z,94.8547
2019-05-22T01:58:13.308Z,94.9524
2019-05-22T01:59:16.301Z,95.0562
2019-05-22T02:00:19.320Z,95.0562
2019-05-22T02:01:22.362Z,94.9524
2019-05-22T02:02:25.290Z,94.8547
2019-05-22T02:03:28.294Z,94.8547
2019-05-22T02:04:31.274Z,94.7510
2019-05-22T02:05:34.307Z,94.7510
2019-05-22T02:06:37.299Z,94.4458
2019-05-22T02:07:40.282Z,94.5496
2019-05-22T02:08:43.332Z,94.5496
2019-05-22T02:09:46.281Z,94.6472
2019-05-22T02:10:49.343Z,94.5496
2019-05-22T02:11:52.264Z,94.6472
2019-05-22T02:12:55.454Z,94.6472
2019-05-22T02:13:58.341Z,94.4458
2019-05-22T02:15:01.291Z,94.4458
2019-05-22T02:16:04.337Z,94.5496
2019-05-22T02:17:07.275Z,94.6472
2019-05-22T02:18:10.309Z,94.6472
2019-05-22T02:19:13.285Z,94.6472
2019-05-22T02:20:16.303Z,94.5496
2019-05-22T02:21:19.341Z,94.4458
2019-05-22T02:22:22.281Z,94.2383
2019-05-22T02:23:25.330Z,94.1406
2019-05-22T02:24:28.285Z,94.1406
2019-05-22T02:25:31.361Z,94.2383
2019-05-22T02:26:34.267Z,94.1406
2019-05-22T02:27:37.312Z,94.2383
2019-05-22T02:28:40.269Z,94.3420
2019-05-22T02:29:43.299Z,94.3420
2019-05-22T02:30:46.359Z,94.3420
2019-05-22T02:31:49.310Z,94.2383
2019-05-22T02:32:52.301Z,93.9331
2019-05-22T02:33:55.292Z,94.1406
2019-05-22T02:34:58.330Z,94.2383
2019-05-22T02:36:01.322Z,94.2871
2019-05-22T02:37:03.337Z,94.1406
2019-05-22T02:38:06.307Z,94.2383
2019-05-22T02:39:09.301Z,94.2871
2019-05-22T02:40:11.310Z,94.3420
2019-05-22T02:41:14.464Z,94.4885
2019-05-22T02:42:17.286Z,94.4885
2019-05-22T02:43:20.284Z,94.4458
2019-05-22T02:44:23.332Z,94.5496
2019-05-22T02:45:26.276Z,94.5496
2019-05-22T02:46:29.314Z,94.5496
2019-05-22T02:47:32.325Z,94.3420
2019-05-22T02:48:35.297Z,94.0369
2019-05-22T02:49:38.272Z,94.0369
2019-05-22T02:50:41.311Z,93.9331
2019-05-22T02:51:44.351Z,94.0369
2019-05-22T02:52:46.272Z,94.1406
2019-05-22T02:53:50.302Z,94.2383
2019-05-22T02:54:53.420Z,94.2383
2019-05-22T02:55:56.263Z,94.3420
2019-05-22T02:56:59.297Z,94.4885
2019-05-22T02:58:02.303Z,94.4458
2019-05-22T02:59:05.316Z,94.4885
2019-05-22T03:00:08.300Z,94.3848
2019-05-22T03:01:11.309Z,94.2871
2019-05-22T03:02:14.359Z,94.3848
2019-05-22T03:03:17.295Z,94.3848
2019-05-22T03:04:20.278Z,94.4885
2019-05-22T03:05:23.304Z,94.3848
2019-05-22T03:06:26.297Z,94.1833
2019-05-22T03:07:29.367Z,94.0796
2019-05-22T03:08:32.314Z,94.1833
2019-05-22T03:09:35.309Z,94.3848
2019-05-22T03:10:38.312Z,94.3848
2019-05-22T03:11:41.304Z,94.4885
2019-05-22T03:12:44.317Z,94.5923
2019-05-22T03:13:47.296Z,94.5923
2019-05-22T03:14:50.280Z,94.6960
2019-05-22T03:15:53.277Z,94.5923
2019-05-22T03:16:56.333Z,94.2871
2019-05-22T03:17:59.340Z,94.2871
2019-05-22T03:19:08.975Z,94.1833
2019-05-22T03:20:10.266Z,94.2871
2019-05-22T03:21:13.309Z,94.4885
2019-05-22T03:22:16.303Z,94.4885
2019-05-22T03:23:19.371Z,94.1833
2019-05-22T03:24:22.284Z,94.1833
2019-05-22T03:25:25.312Z,94.0796
2019-05-22T03:26:28.272Z,94.1833
2019-05-22T03:27:31.339Z,94.1833
2019-05-22T03:28:34.305Z,94.2871
2019-05-22T03:29:37.299Z,94.3848
2019-05-22T03:30:40.315Z,94.3848
2019-05-22T03:31:43.292Z,94.3848
2019-05-22T03:32:46.356Z,94.2871
2019-05-22T03:33:49.325Z,94.2871
2019-05-22T03:34:52.281Z,94.1833
2019-05-22T03:35:55.342Z,93.9758
2019-05-22T03:36:58.296Z,93.4692
2019-05-22T03:38:01.291Z,93.4692
2019-05-22T03:39:04.323Z,93.5730
2019-05-22T03:40:07.306Z,93.5730
2019-05-22T03:41:10.296Z,93.2617
2019-05-22T03:42:13.298Z,93.4692
2019-05-22T03:43:16.278Z,93.5730
2019-05-22T03:44:19.347Z,93.5730
2019-05-22T03:45:22.295Z,93.4692
2019-05-22T03:46:25.295Z,93.4692
2019-05-22T03:47:27.293Z,93.3655
2019-05-22T03:48:30.266Z,93.3655
2019-05-22T03:49:33.362Z,93.2617
2019-05-22T03:50:36.281Z,93.2617
2019-05-22T03:51:39.307Z,93.1641
2019-05-22T03:52:42.346Z,92.9565
2019-05-22T03:53:45.306Z,93.0603
2019-05-22T03:54:48.460Z,93.2617
2019-05-22T03:55:51.290Z,93.4692
2019-05-22T03:56:53.304Z,93.5730
2019-05-22T03:57:56.279Z,93.5730
2019-05-22T03:58:59.301Z,93.5730
2019-05-22T04:00:02.396Z,93.5730
2019-05-22T04:01:05.320Z,93.6707
2019-05-22T04:02:08.307Z,93.5730
2019-05-22T04:03:11.270Z,93.5730
2019-05-22T04:04:14.309Z,93.5730
2019-05-22T04:05:17.308Z,93.8782
2019-05-22T04:06:20.297Z,94.8975
2019-05-22T04:07:22.287Z,94.6960
2019-05-22T04:08:25.308Z,94.3848
2019-05-22T04:09:28.308Z,94.1833
2019-05-22T04:10:31.345Z,94.1833
2019-05-22T04:11:34.293Z,94.2871
2019-05-22T04:12:37.276Z,94.1833
2019-05-22T04:13:40.344Z,94.0796
2019-05-22T04:14:43.289Z,94.1833
2019-05-22T04:15:46.345Z,94.2871
2019-05-22T04:16:49.294Z,94.2871
2019-05-22T04:17:52.330Z,94.3848
2019-05-22T04:18:54.270Z,94.3848
2019-05-22T04:19:57.349Z,94.3848
2019-05-22T04:21:00.316Z,94.3848
2019-05-22T04:22:03.293Z,94.3848
2019-05-22T04:23:06.305Z,94.6960
2019-05-22T04:24:09.259Z,95.4102
2019-05-22T04:25:12.302Z,95.8130
2019-05-22T04:26:15.293Z,95.4102
2019-05-22T04:27:18.334Z,94.7937
2019-05-22T04:28:21.294Z,94.6960
2019-05-22T04:29:24.325Z,94.5923
2019-05-22T04:30:27.301Z,94.5923
2019-05-22T04:31:29.340Z,94.3848
2019-05-22T04:32:32.310Z,94.1833
2019-05-22T04:33:34.295Z,94.0796
2019-05-22T04:34:37.315Z,94.2871
2019-05-22T04:35:40.279Z,94.3848
2019-05-22T04:36:43.374Z,94.4885
2019-05-22T04:37:46.298Z,94.6960
2019-05-22T04:38:49.329Z,95.4102
2019-05-22T04:39:52.302Z,95.5078
2019-05-22T04:40:55.308Z,94.8975
2019-05-22T04:41:58.417Z,94.4885
2019-05-22T04:43:01.309Z,94.3848
2019-05-22T04:44:04.317Z,94.3848
2019-05-22T04:45:07.316Z,94.3848
2019-05-22T04:46:10.314Z,94.4885
2019-05-22T04:47:13.312Z,94.5923
2019-05-22T04:48:16.314Z,94.2871
2019-05-22T04:49:19.307Z,94.1833
2019-05-22T04:50:22.305Z,94.2871
2019-05-22T04:51:25.324Z,94.1833
2019-05-22T04:52:28.321Z,94.4885
2019-05-22T04:53:31.323Z,94.7937
2019-05-22T04:54:34.310Z,94.8975
2019-05-22T04:55:37.303Z,94.7937
2019-05-22T04:56:40.310Z,94.4885
2019-05-22T04:57:43.303Z,94.3848
2019-05-22T04:58:46.324Z,94.0796
2019-05-22T04:59:49.287Z,94.0796
2019-05-22T05:00:52.327Z,94.3848
2019-05-22T05:01:55.310Z,94.4885
2019-05-22T05:02:58.311Z,94.2871
2019-05-22T05:04:01.278Z,94.1833
2019-05-22T05:05:04.318Z,94.2871
2019-05-22T05:06:07.294Z,94.1833
2019-05-22T05:07:10.350Z,94.1833
2019-05-22T05:08:13.317Z,94.0796
2019-05-22T05:09:16.318Z,94.1833
2019-05-22T05:10:19.289Z,93.9758
2019-05-22T05:11:22.284Z,93.9758
2019-05-22T05:12:25.350Z,93.6707
2019-05-22T05:13:28.305Z,93.4692
2019-05-22T05:14:33.339Z,93.3655
2019-05-22T05:15:38.275Z,93.3655
2019-05-22T05:16:41.290Z,93.1641
2019-05-22T05:17:44.315Z,93.1641
2019-05-22T05:18:47.344Z,93.1641
2019-05-22T05:19:50.342Z,93.1641
2019-05-22T05:20:53.315Z,93.2617
2019-05-22T05:21:56.327Z,93.0603
2019-05-22T05:22:58.312Z,93.1641
2019-05-22T05:24:01.304Z,93.1641
2019-05-22T05:25:04.308Z,93.0603
2019-05-22T05:26:07.329Z,93.1641
2019-05-22T05:27:10.305Z,93.0603
2019-05-22T05:28:13.334Z,92.7551
2019-05-22T05:29:16.268Z,92.7551
2019-05-22T05:30:19.293Z,92.8589
2019-05-22T05:31:22.294Z,92.9565
2019-05-22T05:32:25.314Z,92.9565
2019-05-22T05:33:28.362Z,92.9565
2019-05-22T05:34:31.290Z,92.8589
2019-05-22T05:35:34.319Z,92.6514
2019-05-22T05:36:37.272Z,92.5476
2019-05-22T05:37:40.306Z,92.5476
2019-05-22T05:38:43.343Z,92.3462
2019-05-22T05:39:46.341Z,92.2424
2019-05-22T05:40:49.487Z,91.8335
2019-05-22T05:41:52.291Z,91.5283
2019-05-22T05:42:55.328Z,91.5283
2019-05-22T05:43:58.309Z,91.7358
2019-05-22T05:45:01.312Z,91.9373
2019-05-22T05:46:04.320Z,91.8335
2019-05-22T05:47:07.325Z,92.1448
2019-05-22T05:48:10.345Z,92.2424
2019-05-22T05:49:13.368Z,92.4500
2019-05-22T05:50:16.321Z,92.5476
2019-05-22T05:51:19.295Z,92.5476
2019-05-22T05:52:22.340Z,92.6514
2019-05-22T05:53:25.334Z,92.7551
2019-05-22T05:54:30.319Z,92.7551
2019-05-22T05:55:32.300Z,92.7551
2019-05-22T05:56:35.301Z,92.8589
2019-05-22T05:57:38.339Z,92.8589
2019-05-22T05:58:41.350Z,92.8589
2019-05-22T05:59:44.340Z,92.7551
2019-05-22T06:00:47.297Z,92.7551
2019-05-22T06:01:50.334Z,92.5476
2019-05-22T06:02:56.490Z,92.8589
2019-05-22T06:04:00.362Z,93.1641
2019-05-22T06:05:03.315Z,93.4692
2019-05-22T06:06:06.330Z,93.6279
2019-05-22T06:07:11.321Z,93.9331
2019-05-22T06:08:14.300Z,94.0369
2019-05-22T06:09:17.348Z,94.2383
2019-05-22T06:10:20.303Z,94.4458
2019-05-22T06:11:23.309Z,94.5496
2019-05-22T06:12:25.348Z,94.5496
2019-05-22T06:13:28.333Z,94.6045
2019-05-22T06:14:31.320Z,94.4458
2019-05-22T06:15:46.508Z,94.6045
2019-05-22T06:16:42.310Z,94.7083
2019-05-22T06:17:45.299Z,94.7083
2019-05-22T06:18:48.356Z,94.9097
2019-05-22T06:19:51.321Z,94.9097
2019-05-22T06:21:03.468Z,94.8059
2019-05-22T06:22:01.308Z,94.5007
2019-05-22T06:23:04.329Z,94.1956
2019-05-22T06:24:07.369Z,93.8904
2019-05-22T06:25:10.338Z,92.6086
2019-05-22T06:26:13.298Z,92.3035
2019-05-22T06:27:16.359Z,93.1213
2019-05-22T06:28:19.316Z,93.6279
2019-05-22T06:29:22.348Z,93.1213
2019-05-22T06:30:25.328Z,93.0176
2019-05-22T06:31:28.331Z,93.0176
2019-05-22T06:32:31.370Z,93.2190
2019-05-22T06:33:34.305Z,93.6279
2019-05-22T06:34:37.360Z,93.5242
2019-05-22T06:35:42.301Z,92.0959
2019-05-22T06:36:45.344Z,92.8101
2019-05-22T06:37:48.322Z,93.4265
2019-05-22T06:38:51.327Z,93.0176
2019-05-22T06:39:54.345Z,92.5049
2019-05-22T06:40:57.311Z,92.9138
2019-05-22T06:42:00.328Z,92.8101
2019-05-22T06:43:03.315Z,91.6931
2019-05-22T06:44:06.342Z,93.0176
2019-05-22T06:45:09.378Z,93.8354
2019-05-22T06:46:12.314Z,94.2383
2019-05-22T06:47:15.310Z,94.6045
2019-05-22T06:48:18.301Z,92.6086
2019-05-22T06:49:21.305Z,92.7124
2019-05-22T06:50:24.334Z,92.8711
2019-05-22T06:51:27.313Z,93.9941
2019-05-22T06:52:30.296Z,94.4031
2019-05-22T06:53:33.303Z,93.6890
2019-05-22T06:54:36.315Z,93.9941
2019-05-22T06:55:39.360Z,94.4031
2019-05-22T06:56:42.313Z,94.9097
2019-05-22T06:57:45.301Z,94.2993
2019-05-22T06:58:48.332Z,92.7673
2019-05-22T07:00:11.657Z,92.7673
2019-05-22T07:00:59.341Z,92.0532
2019-05-22T07:02:02.325Z,92.8711
2019-05-22T07:03:05.302Z,91.6504
2019-05-22T07:04:08.337Z,91.8518
2019-05-22T07:05:11.337Z,91.7908
2019-05-22T07:06:14.297Z,90.7715
2019-05-22T07:07:17.330Z,89.6484
2019-05-22T07:08:20.330Z,91.8945
2019-05-22T07:09:23.321Z,92.8101
2019-05-22T07:10:26.361Z,92.7124
2019-05-22T07:11:29.305Z,92.7124
2019-05-22T07:12:32.294Z,92.0959
2019-05-22T07:13:35.320Z,92.7673
2019-05-22T07:14:38.361Z,93.2800
2019-05-22T07:15:41.317Z,93.5852
2019-05-22T07:16:44.324Z,93.8904
2019-05-22T07:17:47.313Z,91.9556
2019-05-22T07:18:50.327Z,90.2222
2019-05-22T07:19:53.320Z,89.6118
2019-05-22T07:20:55.326Z,89.0991
2019-05-22T07:21:58.338Z,88.4888
2019-05-22T07:23:01.292Z,88.6292
2019-05-22T07:24:04.303Z,90.0146
2019-05-22T07:25:07.324Z,90.6311
2019-05-22T07:26:10.319Z,88.6292
2019-05-22T07:27:13.307Z,89.2029
2019-05-22T07:28:16.319Z,89.9597
2019-05-22T07:29:19.321Z,90.2222
2019-05-22T07:30:22.349Z,90.4236
2019-05-22T07:31:25.336Z,90.4236
2019-05-22T07:32:30.848Z,90.4236
2019-05-22T07:33:34.329Z,89.5081
2019-05-22T07:34:36.360Z,91.2415
2019-05-22T07:36:07.564Z,92.1570
2019-05-22T07:36:47.318Z,92.5659
2019-05-22T07:37:50.393Z,92.4622
2019-05-22T07:38:53.270Z,90.6311
2019-05-22T07:39:56.367Z,90.0146
2019-05-22T07:40:59.297Z,89.7095
2019-05-22T07:42:02.334Z,89.0991
2019-05-22T07:43:05.374Z,88.3850
2019-05-22T07:44:08.287Z,89.0991
2019-05-22T07:45:11.341Z,89.2029
2019-05-22T07:46:14.304Z,89.2029
2019-05-22T07:47:17.343Z,89.8132
2019-05-22T07:48:19.323Z,91.4001
2019-05-22T07:49:22.339Z,92.3157
2019-05-22T07:50:25.316Z,91.0950
2019-05-22T07:51:28.315Z,92.1143
2019-05-22T07:52:31.272Z,93.0298
2019-05-22T07:53:34.308Z,92.0105
2019-05-22T07:54:37.338Z,93.2373
2019-05-22T07:55:40.298Z,93.1946
2019-05-22T07:56:43.338Z,92.8894
2019-05-22T07:57:45.267Z,90.9485
2019-05-22T07:58:47.418Z,86.8164
2019-05-22T07:59:50.314Z,87.5305
2019-05-22T08:00:53.361Z,86.1023
2019-05-22T08:01:56.328Z,84.6741
2019-05-22T08:02:59.337Z,87.9395
2019-05-22T08:04:02.304Z,90.0757
2019-05-22T08:05:05.285Z,88.7512
2019-05-22T08:06:08.348Z,89.8743
2019-05-22T08:07:11.314Z,88.5498
2019-05-22T08:08:14.312Z,88.9587
2019-05-22T08:09:17.332Z,90.3809
2019-05-22T08:10:20.305Z,89.8743
2019-05-22T08:11:26.415Z,89.2639
2019-05-22T08:12:29.353Z,88.6475
2019-05-22T08:13:32.366Z,89.5691
2019-05-22T08:14:35.272Z,87.5305
2019-05-22T08:15:38.406Z,88.1409
2019-05-22T08:16:41.290Z,88.4033
2019-05-22T08:17:44.350Z,87.9395
2019-05-22T08:18:47.330Z,86.6760
2019-05-22T08:19:50.299Z,86.9812
2019-05-22T08:20:52.391Z,87.6892
2019-05-22T08:22:06.946Z,88.3057
2019-05-22T08:23:03.324Z,88.2019
2019-05-22T08:24:06.331Z,85.4492
2019-05-22T08:25:09.296Z,88.6108
2019-05-22T08:26:12.317Z,88.9160
2019-05-22T08:27:14.355Z,87.5916
2019-05-22T08:28:17.300Z,87.1826
2019-05-22T08:29:20.313Z,87.8967
2019-05-22T08:30:23.302Z,88.2019
2019-05-22T08:31:27.677Z,87.8967
2019-05-22T08:32:30.367Z,88.4033
2019-05-22T08:33:33.334Z,87.5916
2019-05-22T08:34:36.316Z,85.1440
2019-05-22T08:35:39.370Z,87.6892
2019-05-22T08:36:42.314Z,84.2285
2019-05-22T08:37:45.311Z,85.0464
2019-05-22T08:38:48.308Z,81.7871
2019-05-22T08:39:51.361Z,82.1899
2019-05-22T08:40:54.336Z,84.8389
2019-05-22T08:41:57.360Z,86.7737
2019-05-22T08:43:00.317Z,88.0554
2019-05-22T08:44:16.297Z,87.3474
2019-05-22T08:45:11.318Z,88.0554
2019-05-22T08:46:14.362Z,89.3799
2019-05-22T08:47:17.348Z,89.1785
2019-05-22T08:48:19.319Z,88.3606
2019-05-22T08:49:22.362Z,86.5295
2019-05-22T08:50:25.292Z,87.5488
2019-05-22T08:51:28.337Z,89.5447
2019-05-22T08:52:31.283Z,87.5061
2019-05-22T08:53:46.784Z,86.8958
2019-05-22T08:54:42.364Z,85.0281
2019-05-22T08:55:45.346Z,87.7747
2019-05-22T08:56:48.341Z,88.1348
2019-05-22T08:57:51.368Z,88.6475
2019-05-22T08:58:54.328Z,88.8062
2019-05-22T08:59:57.320Z,84.8450
2019-05-22T09:00:59.332Z,82.4036
2019-05-22T09:02:02.340Z,83.7891
2019-05-22T09:03:06.375Z,85.0708
2019-05-22T09:04:09.344Z,83.0383
2019-05-22T09:05:12.317Z,82.0251
2019-05-22T09:06:15.317Z,80.6641
2019-05-22T09:07:18.483Z,81.9885
2019-05-22T09:08:22.342Z,80.1575
2019-05-22T09:09:25.342Z,83.2031
2019-05-22T09:10:28.310Z,83.3679
2019-05-22T09:11:31.357Z,77.4170
2019-05-22T09:12:35.376Z,82.7576
2019-05-22T09:13:37.292Z,83.3679
2019-05-22T09:14:40.319Z,84.0393
2019-05-22T09:15:43.313Z,80.6519
2019-05-22T09:16:46.376Z,75.4517
2019-05-22T09:17:51.334Z,72.2412
2019-05-22T09:18:54.308Z,76.4587
2019-05-22T09:19:57.325Z,73.0530
2019-05-22T09:21:00.351Z,76.1475
2019-05-22T09:22:03.357Z,79.2053
2019-05-22T09:23:06.303Z,67.9688
2019-05-22T09:24:08.390Z,67.6025
2019-05-22T09:25:11.331Z,71.7041
2019-05-22T09:26:14.288Z,77.4048
2019-05-22T09:27:17.385Z,78.7415
2019-05-22T09:28:20.295Z,80.2124
2019-05-22T09:29:23.347Z,78.1616
2019-05-22T09:30:26.278Z,78.8940
2019-05-22T09:31:29.344Z,72.2656
2019-05-22T09:32:32.333Z,76.2451
2019-05-22T09:33:35.402Z,75.1709
2019-05-22T09:34:38.282Z,67.1509
2019-05-22T09:35:41.437Z,58.3313
2019-05-22T09:36:44.316Z,58.8074
2019-05-22T09:37:47.341Z,57.4280
2019-05-22T09:38:52.419Z,62.1399
2019-05-22T09:39:56.271Z,69.6228
2019-05-22T09:40:59.296Z,70.0928
2019-05-22T09:42:02.320Z,68.3899
2019-05-22T09:43:05.351Z,60.6812
2019-05-22T09:44:08.298Z,65.7532
2019-05-22T09:45:11.369Z,66.4856
2019-05-22T09:46:14.283Z,65.1550
2019-05-22T09:47:17.318Z,58.4778
2019-05-22T09:48:20.390Z,62.7808
2019-05-22T09:49:24.189Z,68.1580
2019-05-22T09:50:27.325Z,60.4492
2019-05-22T09:51:30.300Z,61.0535
2019-05-22T09:52:33.328Z,66.5222
2019-05-22T09:53:36.327Z,61.5234
2019-05-22T09:54:39.318Z,64.9902
2019-05-22T09:55:46.944Z,67.8589
2019-05-22T09:56:50.295Z,59.1064
2019-05-22T09:57:53.299Z,61.0779
2019-05-22T09:58:56.344Z,55.5847
2019-05-22T09:59:59.360Z,63.6414
2019-05-22T10:01:02.353Z,48.0774
2019-05-22T10:02:04.357Z,53.3630
2019-05-22T10:03:07.311Z,56.1829
2019-05-22T10:04:09.367Z,59.9792
2019-05-22T10:05:12.343Z,58.7830
2019-05-22T10:06:15.344Z,56.5857
2019-05-22T10:07:17.334Z,55.0903
2019-05-22T10:08:20.275Z,54.9866
2019-05-22T10:09:23.371Z,52.9907
2019-05-22T10:10:26.363Z,55.6580
2019-05-22T10:11:29.314Z,63.7085
2019-05-22T10:12:32.317Z,66.2720
2019-05-22T10:13:35.647Z,49.1272
2019-05-22T10:14:38.676Z,52.0935
2019-05-22T10:15:42.352Z,51.5930
2019-05-22T10:16:45.323Z,49.0051
2019-05-22T10:17:48.321Z,41.3330
2019-05-22T10:18:53.362Z,46.1182
2019-05-22T10:19:57.427Z,55.0842
2019-05-22T10:20:59.339Z,49.4019
2019-05-22T10:22:02.340Z,45.9412
2019-05-22T10:23:14.819Z,45.5200
2019-05-22T10:24:13.293Z,52.1912
2019-05-22T10:25:17.307Z,56.4758
2019-05-22T10:26:20.293Z,60.0342
2019-05-22T10:27:23.288Z,63.7878
2019-05-22T10:28:26.343Z,66.7419
2019-05-22T10:29:32.131Z,57.5623
2019-05-22T10:30:35.349Z,46.9238
2019-05-22T10:31:38.300Z,57.3364
2019-05-22T10:32:40.345Z,43.7195
2019-05-22T10:33:43.318Z,51.8677
2019-05-22T10:34:46.343Z,61.9080
2019-05-22T10:35:49.375Z,60.6873
2019-05-22T10:36:52.338Z,40.4236
2019-05-22T10:37:55.293Z,41.4185
2019-05-22T10:38:58.326Z,44.4153
2019-05-22T10:40:01.361Z,55.0476
2019-05-22T10:41:04.311Z,49.8840
2019-05-22T10:42:07.322Z,55.1514
2019-05-22T10:43:10.328Z,46.0815
2019-05-22T10:44:13.336Z,42.2302
2019-05-22T10:45:16.304Z,42.2302
2019-05-22T10:46:19.345Z,43.5242
2019-05-22T10:47:22.311Z,46.1060
2019-05-22T10:48:25.324Z,44.6167
2019-05-22T10:49:29.385Z,49.3103
2019-05-22T10:50:32.301Z,55.5481
2019-05-22T10:51:35.382Z,53.0640
2019-05-22T10:52:38.311Z,47.3999
2019-05-22T10:53:40.382Z,49.2859
2019-05-22T10:54:42.508Z,50.5798
2019-05-22T10:55:44.487Z,52.7649
2019-05-22T10:56:47.350Z,56.1157
2019-05-22T10:57:50.293Z,49.0662
2019-05-22T10:58:53.327Z,41.8152
2019-05-22T10:59:56.335Z,51.2512
2019-05-22T11:00:59.278Z,58.6975
2019-05-22T11:02:02.435Z,56.6101
2019-05-22T11:03:05.316Z,49.3408
2019-05-22T11:04:08.307Z,54.2053
2019-05-22T11:05:11.295Z,43.2800
2019-05-22T11:06:14.323Z,46.6370
2019-05-22T11:07:17.363Z,53.9795
2019-05-22T11:08:19.350Z,52.5879
2019-05-22T11:09:22.374Z,46.7346
2019-05-22T11:10:25.309Z,56.3599
2019-05-22T11:11:28.330Z,56.1584
2019-05-22T11:12:31.380Z,61.6882
2019-05-22T11:13:34.586Z,58.4167
2019-05-22T11:14:37.332Z,67.1082
2019-05-22T11:15:40.294Z,58.9844
2019-05-22T11:16:43.319Z,46.8628
2019-05-22T11:17:46.369Z,41.5161
2019-05-22T11:18:49.324Z,56.9702
2019-05-22T11:19:52.328Z,56.4758
2019-05-22T11:20:55.343Z,55.9814
2019-05-22T11:22:00.293Z,65.6921
2019-05-22T11:23:03.346Z,51.8921
2019-05-22T11:24:06.323Z,52.1912
2019-05-22T11:25:09.311Z,57.6355
2019-05-22T11:26:12.289Z,60.8765
2019-05-22T11:27:15.345Z,45.8313
2019-05-22T11:28:18.352Z,58.7952
2019-05-22T11:29:21.286Z,62.2620
2019-05-22T11:30:24.333Z,53.2532
2019-05-22T11:31:27.332Z,52.1667
2019-05-22T11:32:30.306Z,43.9514
2019-05-22T11:33:34.380Z,60.1135
2019-05-22T11:34:37.291Z,62.0972
2019-05-22T11:35:40.320Z,44.7632
2019-05-22T11:36:43.310Z,46.5454
2019-05-22T11:37:46.290Z,41.1011
2019-05-22T11:38:49.352Z,41.7114
2019-05-22T11:39:52.343Z,50.2319
2019-05-22T11:40:55.312Z,51.8433
2019-05-22T11:41:57.334Z,60.8337
2019-05-22T11:43:00.344Z,61.6272
2019-05-22T11:44:03.324Z,47.7539
2019-05-22T11:45:06.305Z,55.2612
2019-05-22T11:46:09.310Z,49.7131
2019-05-22T11:47:11.322Z,54.4678
2019-05-22T11:48:14.321Z,49.5911
2019-05-22T11:49:17.306Z,60.7788
2019-05-22T11:50:20.301Z,55.3345
2019-05-22T11:51:22.318Z,63.3240
2019-05-22T11:52:25.360Z,49.2737
2019-05-22T11:53:28.309Z,46.6980
2019-05-22T11:54:31.363Z,41.0767
2019-05-22T11:55:45.088Z,45.9290
2019-05-22T11:56:42.276Z,57.2144
2019-05-22T11:57:45.298Z,41.5710
2019-05-22T11:58:48.345Z,38.6047
2019-05-22T11:59:51.326Z,36.4441
2019-05-22T12:00:54.337Z,45.7764
2019-05-22T12:01:57.281Z,43.3167
2019-05-22T12:03:00.309Z,46.0205
2019-05-22T12:04:03.347Z,48.4985
2019-05-22T12:05:05.374Z,52.6855
2019-05-22T12:06:08.298Z,53.5828
2019-05-22T12:07:11.320Z,53.6560
2019-05-22T12:08:14.291Z,57.0251
2019-05-22T12:09:17.338Z,58.4839
2019-05-22T12:10:20.376Z,50.0610
2019-05-22T12:11:22.332Z,42.5232
2019-05-22T12:12:25.342Z,43.5181
2019-05-22T12:13:27.429Z,50.7568
2019-05-22T12:14:29.496Z,54.3213
2019-05-22T12:15:32.313Z,53.9551
2019-05-22T12:16:35.335Z,55.8105
2019-05-22T12:17:39.033Z,51.8433
2019-05-22T12:18:42.349Z,53.5583
2019-05-22T12:19:45.339Z,55.1453
2019-05-22T12:20:48.341Z,56.8298
2019-05-22T12:21:51.301Z,61.1938
2019-05-22T12:22:54.389Z,58.3435
2019-05-22T12:23:57.299Z,57.4524
2019-05-22T12:25:00.338Z,40.8997
2019-05-22T12:26:03.345Z,49.9573
2019-05-22T12:27:07.470Z,57.2388
2019-05-22T12:28:11.312Z,60.6140
2019-05-22T12:29:17.129Z,51.0010
2019-05-22T12:30:21.375Z,60.8704
2019-05-22T12:31:24.362Z,59.6069
2019-05-22T12:32:27.337Z,56.3232
2019-05-22T12:33:30.329Z,58.9417
2019-05-22T12:34:33.324Z,58.3435
2019-05-22T12:35:36.369Z,52.4658
2019-05-22T12:36:39.330Z,48.3826
2019-05-22T12:37:42.327Z,55.1575
2019-05-22T12:38:45.335Z,51.5686
2019-05-22T12:39:48.311Z,57.7148
2019-05-22T12:40:51.352Z,59.7046
2019-05-22T12:41:54.340Z,50.1526
2019-05-22T12:42:57.302Z,56.6223